createdAt,value
2019-04-25T00:01:07.396Z,6.02
2019-04-25T00:03:38.446Z,5.92
2019-04-25T00:06:09.044Z,5.97
2019-04-25T00:08:39.578Z,5.98
2019-04-25T00:11:11.598Z,6.05
2019-04-25T00:13:43.992Z,6.05
2019-04-25T00:16:17.671Z,5.96
2019-04-25T00:18:48.418Z,5.98
2019-04-25T00:21:41.912Z,6.04
2019-04-25T00:24:23.856Z,5.90
2019-04-25T00:26:54.195Z,5.95
2019-04-25T00:29:24.408Z,5.93
2019-04-25T00:31:54.577Z,5.84
2019-04-25T00:34:24.783Z,5.78
2019-04-25T00:36:54.937Z,5.81
2019-04-25T00:39:25.239Z,5.83
2019-04-25T00:41:55.380Z,5.84
2019-04-25T00:44:25.482Z,5.85
2019-04-25T00:46:56.802Z,5.81
2019-04-25T00:49:27.519Z,5.74
2019-04-25T00:51:57.679Z,5.65
2019-04-25T00:54:27.967Z,5.64
2019-04-25T00:56:58.207Z,5.73
2019-04-25T00:59:35.151Z,5.73
2019-04-25T01:02:44.056Z,5.71
2019-04-25T01:05:14.542Z,5.64
2019-04-25T01:07:45.588Z,5.57
2019-04-25T01:10:15.881Z,5.44
2019-04-25T01:12:46.208Z,5.39
2019-04-25T01:15:16.407Z,5.38
2019-04-25T01:17:46.996Z,5.41
2019-04-25T01:20:17.572Z,5.50
2019-04-25T01:22:47.821Z,5.45
2019-04-25T01:25:18.103Z,5.37
2019-04-25T01:27:48.522Z,5.32
2019-04-25T01:30:21.621Z,5.30
2019-04-25T01:32:52.924Z,5.28
2019-04-25T01:35:53.637Z,5.23
2019-04-25T01:38:43.303Z,5.29
2019-04-25T01:41:34.298Z,5.31
2019-04-25T01:44:17.085Z,5.26
2019-04-25T01:46:48.233Z,5.13
2019-04-25T01:49:18.624Z,4.95
2019-04-25T01:51:49.038Z,4.66
2019-04-25T01:54:19.355Z,4.58
2019-04-25T01:56:49.532Z,4.74
2019-04-25T01:59:19.663Z,4.75
2019-04-25T02:01:50.944Z,4.72
2019-04-25T02:04:23.105Z,4.72
2019-04-25T02:06:54.519Z,4.69
2019-04-25T02:09:25.824Z,4.74
2019-04-25T02:12:04.966Z,4.72
2019-04-25T02:14:35.272Z,4.68
2019-04-25T02:17:05.464Z,4.64
2019-04-25T02:19:36.762Z,4.64
2019-04-25T02:22:07.131Z,4.60
2019-04-25T02:24:37.331Z,4.64
2019-04-25T02:27:07.538Z,4.59
2019-04-25T02:29:37.824Z,4.54
2019-04-25T02:32:09.141Z,4.47
2019-04-25T02:34:39.783Z,4.44
2019-04-25T02:37:10.157Z,4.51
2019-04-25T02:39:44.769Z,4.49
2019-04-25T02:42:16.869Z,4.35
2019-04-25T02:44:56.176Z,4.17
2019-04-25T02:47:46.427Z,4.21
2019-04-25T02:50:34.440Z,4.25
2019-04-25T02:53:29.906Z,4.11
2019-04-25T02:56:00.222Z,4.17
2019-04-25T02:58:30.546Z,4.10
2019-04-25T03:01:10.702Z,4.15
2019-04-25T03:03:34.771Z,4.18
2019-04-25T03:06:07.597Z,4.10
2019-04-25T03:08:37.033Z,4.06
2019-04-25T03:11:09.145Z,4.05
2019-04-25T03:13:39.439Z,4.05
2019-04-25T03:16:11.053Z,4.04
2019-04-25T03:18:54.390Z,4.12
2019-04-25T03:21:28.437Z,4.13
2019-04-25T03:24:00.080Z,3.98
2019-04-25T03:26:39.866Z,3.97
2019-04-25T03:29:04.655Z,3.74
2019-04-25T03:31:35.163Z,3.84
2019-04-25T03:34:09.508Z,3.93
2019-04-25T03:36:37.605Z,3.98
2019-04-25T03:39:08.747Z,4.01
2019-04-25T03:41:39.127Z,4.04
2019-04-25T03:44:10.060Z,4.01
2019-04-25T03:46:40.249Z,3.97
2019-04-25T03:49:10.836Z,3.92
2019-04-25T03:51:41.176Z,3.89
2019-04-25T03:54:12.216Z,3.85
2019-04-25T03:56:51.879Z,3.81
2019-04-25T03:59:16.135Z,3.78
2019-04-25T04:01:46.441Z,3.73
2019-04-25T04:04:16.692Z,3.75
2019-04-25T04:06:46.835Z,3.62
2019-04-25T04:09:16.993Z,3.72
2019-04-25T04:11:47.337Z,3.72
2019-04-25T04:14:17.745Z,3.58
2019-04-25T04:17:06.725Z,3.43
2019-04-25T04:19:46.525Z,3.63
2019-04-25T04:22:24.151Z,3.78
2019-04-25T04:24:56.506Z,3.72
2019-04-25T04:27:26.845Z,3.69
2019-04-25T04:29:56.970Z,3.67
2019-04-25T04:32:27.197Z,3.67
2019-04-25T04:34:57.291Z,3.63
2019-04-25T04:37:27.536Z,3.61
2019-04-25T04:39:57.819Z,3.58
2019-04-25T04:42:28.043Z,3.60
2019-04-25T04:44:58.217Z,3.59
2019-04-25T04:47:28.906Z,3.66
2019-04-25T04:49:59.252Z,3.78
2019-04-25T04:52:29.488Z,4.22
2019-04-25T04:55:06.354Z,4.69
2019-04-25T04:57:34.139Z,5.17
2019-04-25T05:00:04.363Z,5.58
2019-04-25T05:02:50.952Z,5.88
2019-04-25T05:05:44.010Z,6.18
2019-04-25T05:08:24.754Z,6.55
2019-04-25T05:10:57.353Z,6.69
2019-04-25T05:13:27.262Z,6.96
2019-04-25T05:15:57.604Z,7.11
2019-04-25T05:18:37.542Z,7.43
2019-04-25T05:21:00.031Z,7.66
2019-04-25T05:23:30.486Z,8.03
2019-04-25T05:26:00.668Z,8.31
2019-04-25T05:28:30.808Z,8.41
2019-04-25T05:31:19.220Z,8.69
2019-04-25T05:33:53.638Z,9.10
2019-04-25T05:36:26.104Z,9.57
2019-04-25T05:38:56.457Z,9.94
2019-04-25T05:41:36.555Z,10.00
2019-04-25T05:44:06.901Z,9.87
2019-04-25T05:46:37.248Z,10.12
2019-04-25T05:49:07.373Z,10.42
2019-04-25T05:51:37.711Z,10.94
2019-04-25T05:54:09.664Z,11.16
2019-04-25T05:56:40.116Z,11.62
2019-04-25T05:59:10.406Z,11.69
2019-04-25T06:04:27.786Z,12.68
2019-04-25T06:06:58.147Z,13.19
2019-04-25T06:09:54.523Z,13.58
2019-04-25T06:12:49.877Z,13.66
2019-04-25T06:15:23.720Z,13.94
2019-04-25T06:18:13.890Z,14.21
2019-04-25T06:20:44.343Z,14.55
2019-04-25T06:23:32.236Z,14.91
2019-04-25T06:26:17.121Z,15.08
2019-04-25T06:28:34.858Z,15.46
2019-04-25T06:31:10.039Z,15.46
2019-04-25T06:33:37.287Z,15.77
2019-04-25T06:36:07.555Z,16.35
2019-04-25T06:38:37.748Z,16.73
2019-04-25T06:41:08.643Z,16.95
2019-04-25T06:43:40.932Z,17.35
2019-04-25T06:46:28.889Z,17.98
2019-04-25T06:49:08.940Z,18.04
2019-04-25T06:52:01.239Z,18.51
2019-04-25T06:54:31.631Z,19.82
2019-04-25T06:57:02.055Z,20.31
2019-04-25T06:59:37.820Z,20.99
2019-04-25T07:02:07.112Z,21.31
2019-04-25T07:04:37.307Z,21.39
2019-04-25T07:07:12.113Z,21.74
2019-04-25T07:09:39.786Z,22.11
2019-04-25T07:12:09.888Z,22.08
2019-04-25T07:14:40.430Z,22.77
2019-04-25T07:17:10.633Z,23.08
2019-04-25T07:19:40.770Z,23.59
2019-04-25T07:22:10.913Z,23.93
2019-04-25T07:24:41.137Z,24.52
2019-04-25T07:27:39.512Z,25.19
2019-04-25T07:30:51.627Z,25.34
2019-04-25T07:33:25.941Z,26.29
2019-04-25T07:35:57.093Z,27.31
2019-04-25T07:38:31.572Z,27.56
2019-04-25T07:41:03.576Z,27.78
2019-04-25T07:43:36.086Z,28.51
2019-04-25T07:46:07.689Z,28.02
2019-04-25T07:48:38.216Z,28.24
2019-04-25T07:51:08.607Z,28.27
2019-04-25T07:53:38.994Z,28.31
2019-04-25T07:56:09.497Z,28.84
2019-04-25T07:58:51.838Z,28.98
2019-04-25T08:01:18.145Z,29.27
2019-04-25T08:03:48.487Z,29.82
2019-04-25T08:06:18.761Z,29.95
2019-04-25T08:08:49.267Z,30.03
2019-04-25T08:11:20.253Z,29.85
2019-04-25T08:13:57.778Z,30.01
2019-04-25T08:16:31.042Z,30.67
2019-04-25T08:19:03.932Z,30.72
2019-04-25T08:21:35.698Z,31.28
2019-04-25T08:24:06.816Z,31.43
2019-04-25T08:26:37.588Z,32.00
2019-04-25T08:29:07.987Z,32.40
2019-04-25T08:31:39.356Z,32.51
2019-04-25T08:34:09.763Z,32.85
2019-04-25T08:36:40.068Z,32.88
2019-04-25T08:39:12.363Z,33.27
2019-04-25T08:41:45.387Z,33.11
2019-04-25T08:44:14.913Z,33.86
2019-04-25T08:46:48.574Z,33.55
2019-04-25T08:49:25.904Z,34.34
2019-04-25T08:51:56.763Z,34.83
2019-04-25T08:54:48.769Z,34.97
2019-04-25T08:57:27.925Z,35.20
2019-04-25T09:00:06.100Z,34.23
2019-04-25T09:02:44.643Z,34.56
2019-04-25T09:05:24.238Z,34.46
2019-04-25T09:07:55.030Z,35.10
2019-04-25T09:10:25.428Z,35.57
2019-04-25T09:12:55.827Z,36.13
2019-04-25T09:15:26.530Z,35.92
2019-04-25T09:17:56.939Z,36.59
2019-04-25T09:20:27.103Z,36.78
2019-04-25T09:22:58.343Z,37.50
2019-04-25T09:25:28.622Z,38.47
2019-04-25T09:27:58.868Z,38.56
2019-04-25T09:30:30.267Z,38.50
2019-04-25T09:33:00.454Z,38.50
2019-04-25T09:35:31.334Z,38.16
2019-04-25T09:38:03.211Z,37.92
2019-04-25T09:40:36.108Z,38.87
2019-04-25T09:43:06.878Z,38.19
2019-04-25T09:45:56.151Z,38.62
2019-04-25T09:48:46.709Z,38.08
2019-04-25T09:51:29.982Z,38.59
2019-04-25T09:54:19.427Z,39.36
2019-04-25T09:56:51.612Z,40.67
2019-04-25T09:59:28.051Z,40.30
2019-04-25T10:01:55.984Z,40.57
2019-04-25T10:04:26.203Z,40.54
2019-04-25T10:06:56.531Z,40.03
2019-04-25T10:09:27.377Z,39.76
2019-04-25T10:11:59.299Z,40.20
2019-04-25T10:15:06.995Z,40.32
2019-04-25T10:17:37.745Z,40.00
2019-04-25T10:20:09.375Z,42.05
2019-04-25T10:22:40.340Z,42.24
2019-04-25T10:25:10.838Z,42.45
2019-04-25T10:27:41.048Z,43.41
2019-04-25T10:30:17.699Z,43.10
2019-04-25T10:32:44.310Z,42.01
2019-04-25T10:35:15.732Z,42.78
2019-04-25T10:37:46.584Z,44.36
2019-04-25T10:40:18.576Z,44.78
2019-04-25T10:42:50.383Z,44.71
2019-04-25T10:45:25.465Z,44.19
2019-04-25T10:47:56.786Z,44.70
2019-04-25T10:50:27.137Z,44.37
2019-04-25T10:52:57.714Z,44.67
2019-04-25T10:55:28.028Z,45.59
2019-04-25T10:57:58.291Z,45.34
2019-04-25T11:00:36.074Z,44.83
2019-04-25T11:03:42.075Z,44.22
2019-04-25T11:06:16.246Z,42.89
2019-04-25T11:08:47.063Z,44.65
2019-04-25T11:11:17.835Z,44.38
2019-04-25T11:13:48.612Z,43.82
2019-04-25T11:16:19.032Z,43.72
2019-04-25T11:18:53.123Z,44.69
2019-04-25T11:21:24.390Z,44.11
2019-04-25T11:23:55.550Z,41.70
2019-04-25T11:26:28.949Z,42.03
2019-04-25T11:28:59.109Z,43.88
2019-04-25T11:31:34.223Z,43.55
2019-04-25T11:34:04.461Z,42.60
2019-04-25T11:36:34.550Z,43.44
2019-04-25T11:39:34.525Z,43.67
2019-04-25T11:42:13.085Z,42.65
2019-04-25T11:44:45.514Z,42.22
2019-04-25T11:47:16.885Z,42.29
2019-04-25T11:49:47.858Z,41.40
2019-04-25T11:52:27.276Z,42.41
2019-04-25T11:54:52.841Z,42.34
2019-04-25T11:57:23.614Z,42.53
2019-04-25T11:59:54.578Z,43.21
2019-04-25T12:02:26.763Z,43.31
2019-04-25T12:04:57.128Z,42.76
2019-04-25T12:07:27.497Z,42.24
2019-04-25T12:09:57.764Z,42.01
2019-04-25T12:12:30.169Z,42.14
2019-04-25T12:15:00.770Z,41.62
2019-04-25T12:17:31.035Z,41.61
2019-04-25T12:20:01.562Z,40.54
2019-04-25T12:22:31.882Z,39.42
2019-04-25T12:25:02.647Z,39.31
2019-04-25T12:27:34.092Z,40.09
2019-04-25T12:30:05.758Z,40.98
2019-04-25T12:32:36.534Z,40.54
2019-04-25T12:35:07.470Z,39.36
2019-04-25T12:37:37.855Z,40.50
2019-04-25T12:40:09.382Z,39.61
2019-04-25T12:42:39.799Z,39.18
2019-04-25T12:45:32.318Z,39.43
2019-04-25T12:48:04.113Z,39.27
2019-04-25T12:50:34.556Z,36.51
2019-04-25T12:53:05.123Z,37.23
2019-04-25T12:55:35.442Z,36.60
2019-04-25T12:58:05.906Z,35.47
2019-04-25T13:00:47.515Z,36.31
2019-04-25T13:03:08.732Z,35.59
2019-04-25T13:05:39.072Z,35.27
2019-04-25T13:08:10.393Z,36.48
2019-04-25T13:10:40.687Z,35.09
2019-04-25T13:13:10.945Z,35.39
2019-04-25T13:15:44.259Z,35.75
2019-04-25T13:18:13.833Z,36.48
2019-04-25T13:20:45.338Z,35.24
2019-04-25T13:23:15.474Z,35.16
2019-04-25T13:25:46.208Z,34.15
2019-04-25T13:28:44.125Z,34.10
2019-04-25T13:31:33.229Z,33.77
2019-04-25T13:34:10.156Z,33.78
2019-04-25T13:36:40.944Z,33.19
2019-04-25T13:39:19.055Z,33.64
2019-04-25T13:41:49.767Z,32.20
2019-04-25T13:44:21.139Z,32.14
2019-04-25T13:46:53.212Z,31.36
2019-04-25T13:49:25.041Z,31.86
2019-04-25T13:51:55.609Z,30.90
2019-04-25T13:54:26.603Z,30.57
2019-04-25T13:56:57.209Z,31.51
2019-04-25T13:59:28.259Z,31.45
2019-04-25T14:02:00.297Z,31.25
2019-04-25T14:04:31.456Z,30.91
2019-04-25T14:07:03.549Z,30.92
2019-04-25T14:09:34.744Z,29.42
2019-04-25T14:12:06.408Z,30.58
2019-04-25T14:14:36.973Z,30.11
2019-04-25T14:17:26.719Z,29.93
2019-04-25T14:20:05.172Z,29.61
2019-04-25T14:22:36.199Z,29.72
2019-04-25T14:25:07.003Z,29.52
2019-04-25T14:27:37.471Z,29.93
2019-04-25T14:30:09.685Z,29.20
2019-04-25T14:32:40.042Z,29.66
2019-04-25T14:35:10.629Z,29.17
2019-04-25T14:37:41.123Z,29.26
2019-04-25T14:40:13.925Z,28.85
2019-04-25T14:42:44.585Z,28.33
2019-04-25T14:45:16.161Z,28.51
2019-04-25T14:47:46.809Z,28.63
2019-04-25T14:50:17.119Z,28.57
2019-04-25T14:52:47.635Z,28.09
2019-04-25T14:55:46.013Z,28.15
2019-04-25T14:58:17.894Z,27.80
2019-04-25T15:00:50.000Z,27.50
2019-04-25T15:03:21.747Z,27.29
2019-04-25T15:05:52.359Z,27.06
2019-04-25T15:08:22.645Z,27.16
2019-04-25T15:10:53.042Z,27.07
2019-04-25T15:13:24.244Z,27.22
2019-04-25T15:15:55.025Z,27.33
2019-04-25T15:18:28.767Z,27.15
2019-04-25T15:20:59.421Z,26.74
2019-04-25T15:23:30.000Z,26.71
2019-04-25T15:26:00.887Z,26.79
2019-04-25T15:28:31.198Z,26.87
2019-04-25T15:31:01.901Z,26.63
2019-04-25T15:33:33.120Z,26.68
2019-04-25T15:36:13.117Z,26.78
2019-04-25T15:39:01.819Z,26.84
2019-04-25T15:41:55.655Z,26.73
2019-04-25T15:44:43.582Z,26.78
2019-04-25T15:47:17.699Z,26.72
2019-04-25T15:49:48.739Z,26.50
2019-04-25T15:52:19.117Z,26.41
2019-04-25T15:54:50.089Z,26.35
2019-04-25T15:57:20.368Z,26.26
2019-04-25T15:59:50.642Z,26.26
2019-04-25T16:02:21.224Z,26.18
2019-04-25T16:04:51.687Z,26.19
2019-04-25T16:07:22.301Z,26.15
2019-04-25T16:09:54.071Z,25.87
2019-04-25T16:12:24.479Z,25.68
2019-04-25T16:14:54.624Z,25.69
2019-04-25T16:17:24.945Z,25.40
2019-04-25T16:19:55.219Z,25.53
2019-04-25T16:22:29.103Z,25.45
2019-04-25T16:24:59.560Z,25.45
2019-04-25T16:27:30.403Z,25.34
2019-04-25T16:30:00.707Z,25.35
2019-04-25T16:32:32.635Z,25.25
2019-04-25T16:35:02.988Z,25.11
2019-04-25T16:37:34.572Z,25.01
2019-04-25T16:40:05.204Z,24.89
2019-04-25T16:42:35.943Z,24.77
2019-04-25T16:45:08.149Z,24.94
2019-04-25T16:47:38.675Z,24.89
2019-04-25T16:50:08.900Z,24.87
2019-04-25T16:52:39.848Z,24.70
2019-04-25T16:55:11.195Z,24.67
2019-04-25T16:57:41.997Z,24.65
2019-04-25T17:00:32.123Z,24.78
2019-04-25T17:03:02.531Z,24.56
2019-04-25T17:05:34.370Z,24.59
2019-04-25T17:08:05.204Z,24.68
2019-04-25T17:10:35.678Z,24.38
2019-04-25T17:13:06.201Z,24.26
2019-04-25T17:16:04.541Z,24.20
2019-04-25T17:18:52.616Z,24.16
2019-04-25T17:21:24.655Z,24.04
2019-04-25T17:23:56.593Z,24.03
2019-04-25T17:26:27.034Z,23.96
2019-04-25T17:29:01.068Z,23.89
2019-04-25T17:31:42.704Z,23.84
2019-04-25T17:34:32.908Z,23.72
2019-04-25T17:37:26.216Z,23.48
2019-04-25T17:40:00.117Z,23.52
2019-04-25T17:42:30.614Z,23.35
2019-04-25T17:45:00.840Z,23.18
2019-04-25T17:47:32.074Z,22.93
2019-04-25T17:50:02.897Z,22.74
2019-04-25T17:52:34.032Z,22.53
2019-04-25T17:55:04.662Z,22.32
2019-04-25T17:57:35.724Z,22.20
2019-04-25T18:00:10.358Z,22.06
2019-04-25T18:02:41.414Z,21.85
2019-04-25T18:05:11.942Z,21.66
2019-04-25T18:07:44.567Z,21.51
2019-04-25T18:10:16.213Z,21.45
2019-04-25T18:12:46.658Z,21.22
2019-04-25T18:15:22.229Z,21.03
2019-04-25T18:17:52.738Z,20.78
2019-04-25T18:20:24.791Z,20.58
2019-04-25T18:23:04.775Z,20.41
2019-04-25T18:26:00.288Z,20.27
2019-04-25T18:28:35.557Z,20.15
2019-04-25T18:31:09.451Z,19.99
2019-04-25T18:33:39.842Z,19.80
2019-04-25T18:36:17.476Z,19.59
2019-04-25T18:38:55.355Z,19.40
2019-04-25T18:41:37.616Z,19.31
2019-04-25T18:44:08.684Z,19.18
2019-04-25T18:46:42.579Z,18.97
2019-04-25T18:49:13.240Z,18.83
2019-04-25T18:51:56.533Z,18.78
2019-04-25T18:54:41.116Z,18.65
2019-04-25T18:57:37.519Z,18.30
2019-04-25T19:00:26.171Z,18.31
2019-04-25T19:03:23.038Z,18.14
2019-04-25T19:05:57.912Z,18.00
2019-04-25T19:08:28.369Z,17.99
2019-04-25T19:10:59.253Z,17.80
2019-04-25T19:13:29.491Z,17.68
2019-04-25T19:16:00.222Z,17.61
2019-04-25T19:18:30.691Z,17.64
2019-04-25T19:21:01.202Z,17.92
2019-04-25T19:23:33.951Z,17.74
2019-04-25T19:26:04.541Z,17.68
2019-04-25T19:28:34.753Z,17.68
2019-04-25T19:31:05.775Z,17.63
2019-04-25T19:33:37.416Z,17.33
2019-04-25T19:36:07.850Z,17.17
2019-04-25T19:38:38.125Z,17.23
2019-04-25T19:41:29.376Z,17.16
2019-04-25T19:44:12.397Z,17.15
2019-04-25T19:46:44.986Z,17.04
2019-04-25T19:49:15.652Z,16.90
2019-04-25T19:51:48.146Z,16.73
2019-04-25T19:54:18.496Z,16.54
2019-04-25T19:56:49.623Z,16.48
2019-04-25T19:59:20.235Z,16.20
2019-04-25T20:01:52.798Z,16.18
2019-04-25T20:04:46.843Z,16.09
2019-04-25T20:07:28.477Z,15.78
2019-04-25T20:10:20.878Z,15.76
2019-04-25T20:12:53.356Z,15.72
2019-04-25T20:15:24.119Z,15.55
2019-04-25T20:17:56.317Z,15.44
2019-04-25T20:20:26.676Z,15.25
2019-04-25T20:22:59.888Z,15.03
2019-04-25T20:25:30.256Z,15.06
2019-04-25T20:28:00.825Z,15.09
2019-04-25T20:30:31.178Z,14.94
2019-04-25T20:33:01.771Z,14.83
2019-04-25T20:35:32.317Z,14.59
2019-04-25T20:38:03.016Z,14.57
2019-04-25T20:40:33.430Z,14.49
2019-04-25T20:43:04.832Z,14.44
2019-04-25T20:45:35.294Z,14.36
2019-04-25T20:48:05.680Z,14.17
2019-04-25T20:50:35.910Z,14.13
2019-04-25T20:53:06.130Z,14.14
2019-04-25T20:55:36.509Z,14.02
2019-04-25T20:58:07.188Z,13.93
2019-04-25T21:00:42.975Z,13.79
2019-04-25T21:03:13.479Z,13.79
2019-04-25T21:05:45.046Z,13.70
2019-04-25T21:08:15.416Z,13.63
2019-04-25T21:10:45.769Z,13.59
2019-04-25T21:13:21.094Z,13.49
2019-04-25T21:15:58.346Z,13.37
2019-04-25T21:18:38.007Z,13.21
2019-04-25T21:21:08.314Z,13.29
2019-04-25T21:23:38.650Z,13.13
2019-04-25T21:26:09.059Z,13.14
2019-04-25T21:28:39.771Z,13.02
2019-04-25T21:31:09.994Z,12.98
2019-04-25T21:33:40.289Z,12.85
2019-04-25T21:36:10.554Z,12.75
2019-04-25T21:38:41.085Z,12.66
2019-04-25T21:41:42.551Z,12.59
2019-04-25T21:44:13.431Z,12.63
2019-04-25T21:46:43.702Z,12.55
2019-04-25T21:49:14.454Z,12.54
2019-04-25T21:51:44.803Z,12.42
2019-04-25T21:54:15.173Z,12.33
2019-04-25T21:56:45.663Z,12.24
2019-04-25T21:59:16.463Z,12.06
2019-04-25T22:01:47.131Z,11.97
2019-04-25T22:04:17.798Z,11.90
2019-04-25T22:06:48.365Z,11.81
2019-04-25T22:09:19.909Z,11.49
2019-04-25T22:11:50.559Z,11.37
2019-04-25T22:14:21.345Z,11.18
2019-04-25T22:16:51.971Z,11.05
2019-04-25T22:19:23.040Z,10.93
2019-04-25T22:21:53.974Z,10.96
2019-04-25T22:24:24.230Z,11.00
2019-04-25T22:26:57.437Z,10.95
2019-04-25T22:29:28.548Z,10.94
2019-04-25T22:32:05.679Z,10.92
2019-04-25T22:34:52.524Z,10.95
2019-04-25T22:37:19.673Z,10.90
2019-04-25T22:39:50.160Z,10.88
2019-04-25T22:42:22.168Z,10.43
2019-04-25T22:44:52.432Z,10.43
2019-04-25T22:47:22.723Z,10.36
2019-04-25T22:49:52.943Z,10.34
2019-04-25T22:52:23.695Z,10.30
2019-04-25T22:54:53.951Z,10.22
2019-04-25T22:57:24.373Z,10.25
2019-04-25T22:59:54.524Z,10.24
2019-04-25T23:02:34.085Z,10.12
2019-04-25T23:05:16.053Z,10.03
2019-04-25T23:07:44.093Z,10.03
2019-04-25T23:10:14.796Z,9.89
2019-04-25T23:12:45.032Z,9.75
2019-04-25T23:15:15.225Z,9.53
2019-04-25T23:17:45.462Z,9.42
2019-04-25T23:20:16.139Z,9.37
2019-04-25T23:22:46.529Z,9.24
2019-04-25T23:25:19.795Z,9.13
2019-04-25T23:28:01.861Z,9.10
2019-04-25T23:30:54.015Z,8.80
2019-04-25T23:33:24.407Z,8.99
2019-04-25T23:35:54.765Z,9.12
2019-04-25T23:38:25.059Z,9.17
2019-04-25T23:40:55.365Z,8.86
2019-04-25T23:43:25.988Z,8.36
2019-04-25T23:45:56.496Z,8.10
2019-04-25T23:48:27.105Z,8.44
2019-04-25T23:50:57.253Z,8.42
2019-04-25T23:53:27.679Z,8.13
2019-04-25T23:55:58.284Z,7.89
2019-04-25T23:58:28.595Z,7.98
